createdAt,value
2019-06-15T00:02:20.421Z,19.60
2019-06-15T00:04:48.857Z,19.50
2019-06-15T00:07:17.269Z,19.40
2019-06-15T00:09:45.772Z,19.50
2019-06-15T00:12:14.189Z,19.50
2019-06-15T00:14:42.646Z,19.40
2019-06-15T00:17:11.047Z,19.40
2019-06-15T00:19:39.489Z,19.40
2019-06-15T00:22:07.937Z,19.50
2019-06-15T00:24:36.374Z,19.50
2019-06-15T00:27:04.999Z,19.50
2019-06-15T00:29:33.402Z,19.40
2019-06-15T00:32:01.864Z,19.20
2019-06-15T00:34:30.265Z,19.20
2019-06-15T00:36:58.676Z,19.00
2019-06-15T00:39:27.127Z,18.80
2019-06-15T00:41:55.572Z,18.90
2019-06-15T00:44:24.011Z,18.90
2019-06-15T00:46:52.457Z,18.80
2019-06-15T00:49:20.896Z,18.80
2019-06-15T00:51:49.313Z,18.90
2019-06-15T00:54:17.767Z,18.90
2019-06-15T00:56:46.175Z,18.90
2019-06-15T00:59:14.618Z,18.80
2019-06-15T01:01:43.045Z,18.90
2019-06-15T01:04:11.522Z,18.90
2019-06-15T01:06:39.922Z,19.00
2019-06-15T01:09:08.466Z,19.10
2019-06-15T01:11:36.959Z,19.20
2019-06-15T01:14:05.901Z,19.20
2019-06-15T01:16:34.314Z,19.10
2019-06-15T01:19:02.737Z,19.10
2019-06-15T01:21:31.259Z,19.00
2019-06-15T01:23:59.669Z,19.10
2019-06-15T01:26:28.086Z,19.00
2019-06-15T01:28:56.535Z,19.00
2019-06-15T01:31:25.002Z,19.00
2019-06-15T01:33:53.480Z,19.10
2019-06-15T01:36:21.928Z,19.00
2019-06-15T01:38:50.406Z,19.10
2019-06-15T01:41:18.877Z,19.00
2019-06-15T01:43:47.301Z,19.00
2019-06-15T01:46:15.741Z,18.90
2019-06-15T01:48:44.153Z,18.90
2019-06-15T01:51:12.597Z,18.90
2019-06-15T01:53:41.011Z,18.90
2019-06-15T01:56:09.463Z,19.00
2019-06-15T01:58:37.874Z,18.90
2019-06-15T02:01:06.549Z,19.00
2019-06-15T02:03:36.520Z,18.90
2019-06-15T02:06:05.266Z,18.90
2019-06-15T02:08:33.715Z,18.90
2019-06-15T02:11:02.157Z,18.80
2019-06-15T02:13:30.616Z,18.80
2019-06-15T02:16:01.952Z,18.80
2019-06-15T02:18:29.218Z,18.60
2019-06-15T02:20:57.653Z,18.60
2019-06-15T02:23:26.110Z,18.60
2019-06-15T02:25:54.521Z,18.60
2019-06-15T02:28:23.018Z,18.60
2019-06-15T02:30:51.502Z,18.60
2019-06-15T02:33:19.960Z,18.60
2019-06-15T02:35:48.362Z,18.60
2019-06-15T02:38:16.793Z,18.60
2019-06-15T02:40:45.200Z,18.50
2019-06-15T02:43:13.645Z,18.50
2019-06-15T02:45:42.060Z,18.60
2019-06-15T02:48:10.512Z,18.60
2019-06-15T02:50:39.099Z,18.50
2019-06-15T02:53:07.533Z,18.50
2019-06-15T02:55:49.718Z,18.50
2019-06-15T02:58:06.180Z,18.50
2019-06-15T03:00:46.712Z,18.40
2019-06-15T03:03:15.329Z,18.50
2019-06-15T03:05:47.222Z,18.50
2019-06-15T03:08:16.527Z,18.50
2019-06-15T03:10:45.416Z,18.60
2019-06-15T03:13:14.406Z,18.50
2019-06-15T03:15:42.830Z,18.40
2019-06-15T03:18:11.583Z,18.40
2019-06-15T03:20:40.013Z,18.50
2019-06-15T03:23:08.439Z,18.50
2019-06-15T03:25:36.875Z,18.50
2019-06-15T03:28:05.546Z,18.50
2019-06-15T03:30:33.966Z,18.60
2019-06-15T03:33:02.486Z,18.50
2019-06-15T03:35:31.034Z,18.80
2019-06-15T03:37:59.474Z,18.90
2019-06-15T03:40:27.902Z,19.00
2019-06-15T03:42:56.325Z,18.80
2019-06-15T03:45:24.825Z,18.90
2019-06-15T03:47:53.253Z,18.80
2019-06-15T03:50:21.831Z,18.80
2019-06-15T03:52:50.333Z,18.90
2019-06-15T03:55:40.549Z,19.00
2019-06-15T03:58:09.053Z,18.90
2019-06-15T04:00:46.176Z,18.80
2019-06-15T04:03:15.225Z,18.90
2019-06-15T04:05:43.937Z,18.90
2019-06-15T04:08:12.498Z,18.90
2019-06-15T04:10:41.132Z,18.90
2019-06-15T04:13:09.532Z,18.80
2019-06-15T04:15:38.111Z,18.80
2019-06-15T04:18:06.643Z,18.80
2019-06-15T04:20:35.063Z,18.90
2019-06-15T04:23:03.751Z,18.80
2019-06-15T04:25:32.198Z,18.90
2019-06-15T04:28:00.711Z,18.90
2019-06-15T04:30:29.177Z,18.80
2019-06-15T04:32:57.803Z,18.80
2019-06-15T04:35:26.233Z,18.70
2019-06-15T04:37:54.654Z,18.80
2019-06-15T04:40:23.124Z,18.80
2019-06-15T04:42:51.517Z,18.80
2019-06-15T04:45:20.323Z,18.80
2019-06-15T04:47:48.771Z,18.90
2019-06-15T04:50:17.186Z,18.90
2019-06-15T04:52:45.625Z,18.80
2019-06-15T04:55:14.133Z,18.80
2019-06-15T04:57:42.631Z,18.80
2019-06-15T05:00:11.357Z,18.70
2019-06-15T05:02:40.349Z,18.70
2019-06-15T05:05:09.749Z,18.80
2019-06-15T05:07:38.189Z,18.80
2019-06-15T05:10:07.065Z,18.70
2019-06-15T05:12:35.727Z,18.60
2019-06-15T05:15:05.661Z,18.60
2019-06-15T05:17:34.347Z,18.60
2019-06-15T05:20:03.284Z,18.80
2019-06-15T05:22:31.881Z,18.80
2019-06-15T05:25:00.314Z,18.70
2019-06-15T05:27:28.725Z,18.60
2019-06-15T05:29:57.171Z,18.60
2019-06-15T05:32:26.035Z,18.50
2019-06-15T05:34:54.531Z,18.50
2019-06-15T05:37:24.021Z,18.60
2019-06-15T05:39:52.431Z,18.90
2019-06-15T05:42:20.871Z,19.00
2019-06-15T05:44:49.281Z,18.90
2019-06-15T05:47:17.731Z,18.80
2019-06-15T05:49:46.133Z,18.90
2019-06-15T05:52:14.562Z,19.00
2019-06-15T05:54:42.976Z,19.00
2019-06-15T05:57:21.326Z,18.90
2019-06-15T05:59:41.562Z,19.00
2019-06-15T06:02:09.996Z,18.90
2019-06-15T06:04:38.431Z,19.10
2019-06-15T06:07:06.983Z,19.10
2019-06-15T06:09:35.509Z,19.30
2019-06-15T06:12:04.082Z,19.50
2019-06-15T06:14:32.480Z,19.80
2019-06-15T06:17:01.005Z,20.00
2019-06-15T06:19:29.437Z,20.10
2019-06-15T06:21:58.410Z,20.20
2019-06-15T06:24:26.979Z,20.20
2019-06-15T06:26:55.419Z,20.00
2019-06-15T06:29:23.925Z,20.30
2019-06-15T06:31:53.004Z,20.40
2019-06-15T06:34:21.475Z,20.40
2019-06-15T06:36:49.960Z,20.60
2019-06-15T06:39:18.428Z,20.90
2019-06-15T06:41:46.981Z,21.00
2019-06-15T06:44:15.408Z,20.80
2019-06-15T06:46:43.868Z,20.70
2019-06-15T06:49:12.493Z,20.70
2019-06-15T06:51:40.921Z,20.90
2019-06-15T06:54:09.559Z,20.90
2019-06-15T06:56:48.561Z,21.10
2019-06-15T06:59:17.188Z,21.30
2019-06-15T07:01:45.614Z,21.30
2019-06-15T07:04:14.063Z,21.30
2019-06-15T07:06:42.576Z,21.70
2019-06-15T07:09:11.228Z,22.00
2019-06-15T07:11:39.674Z,22.20
2019-06-15T07:14:08.201Z,22.50
2019-06-15T07:16:36.693Z,22.70
2019-06-15T07:19:05.114Z,22.50
2019-06-15T07:21:33.585Z,22.80
2019-06-15T07:24:02.122Z,23.10
2019-06-15T07:26:30.579Z,23.10
2019-06-15T07:28:59.033Z,23.30
2019-06-15T07:31:27.501Z,24.20
2019-06-15T07:33:55.956Z,24.00
2019-06-15T07:36:24.406Z,23.70
2019-06-15T07:38:52.869Z,23.30
2019-06-15T07:41:21.373Z,23.10
2019-06-15T07:43:49.794Z,23.20
2019-06-15T07:46:18.252Z,23.20
2019-06-15T07:48:46.669Z,23.50
2019-06-15T07:51:15.201Z,23.40
2019-06-15T07:53:43.616Z,23.10
2019-06-15T07:56:12.142Z,22.60
2019-06-15T07:58:40.724Z,22.20
2019-06-15T08:01:09.194Z,21.90
2019-06-15T08:03:37.635Z,21.60
2019-06-15T08:06:06.086Z,21.30
2019-06-15T08:08:34.546Z,21.20
2019-06-15T08:11:02.966Z,21.20
2019-06-15T08:13:31.407Z,21.20
2019-06-15T08:16:00.011Z,21.40
2019-06-15T08:18:28.477Z,21.70
2019-06-15T08:20:57.160Z,21.80
2019-06-15T08:23:25.829Z,22.20
2019-06-15T08:25:54.334Z,24.10
2019-06-15T08:28:23.085Z,24.90
2019-06-15T08:30:51.579Z,26.00
2019-06-15T08:33:20.239Z,26.80
2019-06-15T08:35:48.745Z,26.40
2019-06-15T08:38:17.262Z,26.50
2019-06-15T08:40:45.685Z,25.80
2019-06-15T08:43:14.168Z,26.40
2019-06-15T08:45:42.657Z,26.60
2019-06-15T08:48:11.366Z,26.80
2019-06-15T08:50:40.171Z,26.80
2019-06-15T08:53:08.612Z,26.40
2019-06-15T08:55:37.094Z,26.70
2019-06-15T08:58:05.548Z,26.50
2019-06-15T09:00:34.101Z,26.80
2019-06-15T09:03:02.889Z,26.40
2019-06-15T09:05:31.612Z,26.00
2019-06-15T09:08:00.422Z,25.90
2019-06-15T09:10:28.944Z,26.10
2019-06-15T09:12:57.363Z,27.30
2019-06-15T09:15:32.705Z,27.10
2019-06-15T09:18:01.130Z,27.00
2019-06-15T09:20:29.580Z,27.10
2019-06-15T09:22:58.052Z,26.90
2019-06-15T09:25:26.513Z,26.80
2019-06-15T09:27:55.012Z,27.50
2019-06-15T09:30:23.514Z,26.80
2019-06-15T09:32:51.995Z,26.80
2019-06-15T09:35:20.436Z,26.60
2019-06-15T09:37:49.010Z,26.50
2019-06-15T09:40:18.205Z,26.70
2019-06-15T09:42:46.626Z,27.60
2019-06-15T09:45:15.792Z,27.80
2019-06-15T09:47:44.254Z,27.70
2019-06-15T09:50:12.965Z,27.40
2019-06-15T09:52:41.381Z,27.90
2019-06-15T09:55:10.092Z,27.60
2019-06-15T09:57:38.524Z,26.70
2019-06-15T10:00:09.130Z,26.50
2019-06-15T10:02:38.211Z,26.50
2019-06-15T10:05:07.703Z,26.40
2019-06-15T10:07:36.244Z,26.30
2019-06-15T10:10:09.307Z,26.10
2019-06-15T10:12:37.754Z,25.40
2019-06-15T10:15:09.295Z,25.50
2019-06-15T10:17:37.780Z,25.00
2019-06-15T10:20:08.108Z,24.60
2019-06-15T10:22:36.589Z,24.30
2019-06-15T10:25:06.680Z,24.10
2019-06-15T10:27:35.370Z,24.10
2019-06-15T10:30:09.050Z,24.10
2019-06-15T10:32:37.512Z,23.80
2019-06-15T10:35:06.411Z,24.10
2019-06-15T10:37:34.902Z,24.30
2019-06-15T10:40:06.092Z,24.40
2019-06-15T10:42:40.672Z,24.40
2019-06-15T10:45:13.680Z,24.80
2019-06-15T10:47:46.251Z,25.30
2019-06-15T10:50:19.597Z,25.20
2019-06-15T10:52:52.628Z,24.70
2019-06-15T10:55:19.756Z,24.80
2019-06-15T10:57:49.379Z,24.90
2019-06-15T11:00:22.922Z,24.80
2019-06-15T11:02:56.753Z,24.80
2019-06-15T11:05:29.789Z,25.00
2019-06-15T11:08:02.847Z,25.80
2019-06-15T11:10:42.971Z,25.90
2019-06-15T11:13:13.383Z,26.00
2019-06-15T11:15:45.254Z,25.40
2019-06-15T11:18:13.682Z,24.80
2019-06-15T11:20:42.167Z,24.60
2019-06-15T11:23:10.754Z,24.40
2019-06-15T11:25:39.242Z,24.40
2019-06-15T11:28:07.673Z,24.10
2019-06-15T11:30:36.793Z,24.00
2019-06-15T11:33:05.337Z,24.00
2019-06-15T11:35:33.975Z,24.10
2019-06-15T11:38:02.511Z,23.90
2019-06-15T11:40:31.006Z,23.90
2019-06-15T11:42:59.414Z,23.80
2019-06-15T11:45:27.851Z,23.60
2019-06-15T11:47:56.267Z,23.40
2019-06-15T11:50:24.810Z,23.30
2019-06-15T11:52:53.287Z,23.30
2019-06-15T11:55:21.776Z,23.40
2019-06-15T11:57:50.289Z,23.40
2019-06-15T12:00:31.251Z,24.00
2019-06-15T12:02:52.153Z,24.30
2019-06-15T12:05:20.650Z,24.40
2019-06-15T12:07:49.108Z,24.50
2019-06-15T12:10:17.655Z,24.30
2019-06-15T12:12:46.082Z,24.10
2019-06-15T12:15:14.836Z,24.40
2019-06-15T12:17:43.279Z,24.40
2019-06-15T12:20:11.866Z,24.30
2019-06-15T12:22:43.592Z,24.50
2019-06-15T12:25:12.073Z,24.50
2019-06-15T12:27:40.525Z,24.30
2019-06-15T12:30:11.621Z,24.30
2019-06-15T12:32:40.123Z,24.40
2019-06-15T12:35:11.770Z,24.40
2019-06-15T12:37:40.409Z,24.50
2019-06-15T12:40:08.991Z,24.90
2019-06-15T12:42:37.477Z,25.00
2019-06-15T12:45:06.157Z,25.00
2019-06-15T12:47:34.980Z,25.10
2019-06-15T12:50:05.490Z,25.10
2019-06-15T12:52:33.934Z,24.70
2019-06-15T12:55:02.408Z,24.30
2019-06-15T12:57:30.853Z,24.10
2019-06-15T12:59:59.302Z,24.00
2019-06-15T13:02:27.906Z,24.30
2019-06-15T13:04:56.393Z,24.60
2019-06-15T13:07:24.900Z,25.00
2019-06-15T13:09:53.334Z,24.60
2019-06-15T13:12:21.747Z,24.60
2019-06-15T13:14:51.091Z,24.70
2019-06-15T13:17:19.588Z,24.90
2019-06-15T13:19:48.170Z,24.90
2019-06-15T13:22:16.635Z,24.90
2019-06-15T13:24:46.753Z,24.80
2019-06-15T13:27:15.233Z,24.60
2019-06-15T13:29:46.485Z,24.70
2019-06-15T13:32:15.187Z,24.80
2019-06-15T13:34:43.701Z,24.80
2019-06-15T13:37:12.189Z,25.10
2019-06-15T13:39:40.646Z,25.20
2019-06-15T13:42:09.785Z,25.00
2019-06-15T13:44:38.291Z,24.70
2019-06-15T13:47:06.699Z,24.80
2019-06-15T13:49:35.167Z,25.00
2019-06-15T13:52:03.565Z,24.90
2019-06-15T13:54:32.053Z,25.10
2019-06-15T13:57:00.464Z,25.20
2019-06-15T13:59:28.947Z,25.10
2019-06-15T14:01:57.406Z,25.10
2019-06-15T14:04:26.002Z,25.30
2019-06-15T14:06:54.443Z,25.50
2019-06-15T14:09:22.987Z,25.40
2019-06-15T14:11:51.436Z,25.40
2019-06-15T14:14:19.993Z,25.40
2019-06-15T14:16:48.492Z,25.30
2019-06-15T14:19:16.935Z,25.40
2019-06-15T14:21:45.375Z,25.30
2019-06-15T14:24:13.804Z,25.10
2019-06-15T14:26:42.256Z,25.00
2019-06-15T14:29:10.710Z,24.80
2019-06-15T14:31:49.792Z,24.80
2019-06-15T14:34:09.364Z,24.90
2019-06-15T14:36:37.778Z,25.10
2019-06-15T14:39:07.163Z,25.00
2019-06-15T14:41:35.580Z,25.00
2019-06-15T14:44:04.148Z,25.20
2019-06-15T14:46:32.668Z,25.20
2019-06-15T14:49:01.092Z,25.00
2019-06-15T14:51:29.691Z,24.90
2019-06-15T14:53:59.120Z,25.00
2019-06-15T14:56:27.916Z,24.60
2019-06-15T14:58:56.452Z,24.40
2019-06-15T15:01:26.103Z,24.50
2019-06-15T15:03:57.114Z,24.60
2019-06-15T15:06:26.072Z,24.60
2019-06-15T15:08:56.243Z,24.90
2019-06-15T15:11:26.477Z,25.00
2019-06-15T15:13:56.211Z,24.90
2019-06-15T15:16:24.854Z,24.80
2019-06-15T15:18:53.350Z,24.80
2019-06-15T15:21:21.823Z,25.00
2019-06-15T15:23:50.235Z,25.20
2019-06-15T15:26:18.803Z,25.00
2019-06-15T15:28:47.490Z,25.00
2019-06-15T15:31:17.225Z,25.10
2019-06-15T15:33:47.707Z,25.10
2019-06-15T15:36:16.857Z,25.00
2019-06-15T15:38:46.846Z,24.70
2019-06-15T15:41:18.717Z,24.60
2019-06-15T15:43:47.167Z,24.50
2019-06-15T15:46:16.521Z,24.30
2019-06-15T15:48:48.262Z,24.20
2019-06-15T15:51:17.193Z,24.30
2019-06-15T15:53:46.652Z,24.60
2019-06-15T15:56:20.261Z,24.80
2019-06-15T15:58:48.688Z,24.70
2019-06-15T16:01:18.822Z,24.80
2019-06-15T16:03:47.670Z,24.70
2019-06-15T16:06:16.385Z,24.60
2019-06-15T16:08:47.078Z,24.40
2019-06-15T16:11:16.446Z,24.10
2019-06-15T16:13:46.309Z,23.90
2019-06-15T16:16:16.489Z,24.00
2019-06-15T16:18:46.950Z,24.00
2019-06-15T16:21:18.280Z,23.90
2019-06-15T16:23:47.294Z,23.90
2019-06-15T16:26:16.930Z,23.90
2019-06-15T16:28:46.197Z,24.00
2019-06-15T16:31:17.760Z,24.10
2019-06-15T16:33:46.490Z,24.30
2019-06-15T16:36:15.333Z,24.40
2019-06-15T16:38:46.801Z,24.20
2019-06-15T16:41:14.248Z,24.00
2019-06-15T16:43:42.727Z,23.70
2019-06-15T16:46:11.580Z,23.60
2019-06-15T16:48:40.046Z,23.60
2019-06-15T16:51:08.490Z,23.60
2019-06-15T16:53:37.349Z,23.60
2019-06-15T16:56:09.154Z,23.50
2019-06-15T16:58:37.554Z,23.40
2019-06-15T17:01:06.776Z,23.50
2019-06-15T17:03:36.741Z,23.60
2019-06-15T17:06:08.620Z,23.70
2019-06-15T17:08:37.142Z,23.80
2019-06-15T17:11:06.784Z,23.80
2019-06-15T17:13:36.943Z,23.80
2019-06-15T17:16:06.088Z,23.70
2019-06-15T17:18:36.548Z,23.70
2019-06-15T17:21:07.118Z,23.60
2019-06-15T17:23:39.957Z,23.60
2019-06-15T17:26:08.399Z,23.60
2019-06-15T17:28:37.156Z,23.60
2019-06-15T17:31:06.126Z,23.60
2019-06-15T17:33:38.234Z,23.60
2019-06-15T17:36:06.843Z,23.60
2019-06-15T17:38:36.918Z,23.60
2019-06-15T17:41:05.569Z,23.70
2019-06-15T17:43:36.324Z,23.70
2019-06-15T17:46:06.978Z,23.80
2019-06-15T17:48:36.923Z,23.90
2019-06-15T17:51:06.659Z,23.90
2019-06-15T17:53:36.723Z,23.80
2019-06-15T17:56:07.351Z,23.90
2019-06-15T17:58:36.956Z,23.90
2019-06-15T18:01:06.509Z,23.90
2019-06-15T18:03:49.771Z,23.80
2019-06-15T18:06:07.504Z,23.70
2019-06-15T18:08:37.104Z,23.80
2019-06-15T18:11:06.827Z,23.70
2019-06-15T18:13:37.194Z,23.70
2019-06-15T18:16:06.574Z,23.50
2019-06-15T18:18:37.160Z,23.50
2019-06-15T18:21:06.590Z,23.40
2019-06-15T18:23:36.915Z,23.30
2019-06-15T18:26:07.162Z,23.30
2019-06-15T18:28:36.258Z,23.30
2019-06-15T18:31:06.556Z,23.10
2019-06-15T18:33:36.568Z,23.00
2019-06-15T18:36:06.298Z,22.90
2019-06-15T18:38:37.220Z,22.90
2019-06-15T18:41:07.297Z,22.90
2019-06-15T18:43:36.592Z,22.80
2019-06-15T18:46:07.122Z,22.60
2019-06-15T18:48:36.133Z,22.60
2019-06-15T18:51:07.376Z,22.60
2019-06-15T18:53:38.620Z,22.50
2019-06-15T18:56:06.982Z,22.50
2019-06-15T18:58:37.692Z,22.60
2019-06-15T19:01:06.934Z,22.50
2019-06-15T19:03:37.645Z,22.40
2019-06-15T19:06:10.748Z,22.40
2019-06-15T19:08:36.401Z,22.40
2019-06-15T19:11:06.997Z,22.40
2019-06-15T19:13:36.014Z,22.60
2019-06-15T19:16:07.020Z,22.60
2019-06-15T19:18:56.551Z,22.70
2019-06-15T19:21:26.060Z,22.70
2019-06-15T19:23:56.457Z,22.60
2019-06-15T19:26:26.859Z,22.50
2019-06-15T19:28:55.951Z,22.40
2019-06-15T19:31:24.558Z,22.30
2019-06-15T19:33:52.982Z,22.30
2019-06-15T19:36:21.516Z,22.20
2019-06-15T19:38:49.946Z,22.20
2019-06-15T19:41:18.412Z,22.10
2019-06-15T19:43:46.915Z,22.10
2019-06-15T19:46:17.064Z,21.90
2019-06-15T19:48:45.876Z,21.90
2019-06-15T19:51:14.462Z,22.00
2019-06-15T19:53:42.973Z,22.10
2019-06-15T19:56:11.401Z,22.10
2019-06-15T19:58:39.819Z,22.10
2019-06-15T20:01:09.017Z,22.00
2019-06-15T20:03:37.444Z,22.00
2019-06-15T20:06:06.511Z,21.80
2019-06-15T20:08:36.188Z,21.80
2019-06-15T20:11:07.310Z,21.80
2019-06-15T20:13:37.154Z,21.60
2019-06-15T20:16:07.807Z,21.60
2019-06-15T20:18:37.515Z,21.50
2019-06-15T20:21:07.243Z,21.50
2019-06-15T20:23:37.072Z,21.50
2019-06-15T20:26:06.637Z,21.50
2019-06-15T20:28:35.404Z,21.30
2019-06-15T20:31:06.220Z,21.30
2019-06-15T20:33:36.721Z,21.30
2019-06-15T20:36:06.677Z,21.40
2019-06-15T20:38:36.283Z,21.30
2019-06-15T20:41:07.271Z,21.20
2019-06-15T20:43:36.834Z,21.10
2019-06-15T20:46:07.053Z,21.10
2019-06-15T20:48:36.254Z,21.10
2019-06-15T20:51:09.911Z,21.00
2019-06-15T20:53:36.689Z,20.90
2019-06-15T20:56:06.620Z,20.80
2019-06-15T20:58:37.243Z,20.80
2019-06-15T21:01:07.055Z,20.60
2019-06-15T21:03:36.673Z,20.60
2019-06-15T21:06:06.817Z,20.50
2019-06-15T21:08:36.341Z,20.50
2019-06-15T21:11:07.033Z,20.40
2019-06-15T21:13:37.477Z,20.40
2019-06-15T21:16:06.668Z,20.40
2019-06-15T21:18:37.112Z,20.30
2019-06-15T21:21:06.860Z,20.30
2019-06-15T21:23:37.233Z,20.30
2019-06-15T21:26:06.846Z,20.20
2019-06-15T21:28:36.883Z,20.20
2019-06-15T21:31:06.399Z,20.20
2019-06-15T21:33:36.064Z,20.20
2019-06-15T21:36:06.254Z,20.10
2019-06-15T21:38:36.083Z,20.10
2019-06-15T21:41:07.510Z,20.00
2019-06-15T21:43:36.349Z,20.10
2019-06-15T21:46:06.341Z,20.00
2019-06-15T21:48:36.556Z,19.90
2019-06-15T21:51:07.751Z,19.90
2019-06-15T21:53:38.346Z,19.90
2019-06-15T21:56:07.310Z,19.80
2019-06-15T21:58:36.719Z,19.80
2019-06-15T22:01:20.771Z,19.80
2019-06-15T22:03:49.259Z,19.80
2019-06-15T22:06:18.231Z,19.80
2019-06-15T22:08:46.708Z,19.90
2019-06-15T22:11:15.990Z,19.90
2019-06-15T22:13:46.405Z,19.80
2019-06-15T22:16:16.956Z,19.90
2019-06-15T22:18:47.232Z,19.90
2019-06-15T22:21:16.183Z,19.90
2019-06-15T22:23:47.087Z,19.90
2019-06-15T22:26:17.141Z,19.90
2019-06-15T22:28:47.057Z,19.90
2019-06-15T22:31:17.136Z,19.90
2019-06-15T22:33:47.277Z,19.90
2019-06-15T22:36:24.937Z,19.90
2019-06-15T22:38:46.291Z,19.80
2019-06-15T22:41:16.731Z,19.80
2019-06-15T22:43:46.253Z,19.80
2019-06-15T22:46:16.673Z,19.80
2019-06-15T22:48:47.111Z,19.70
2019-06-15T22:51:16.823Z,19.70
2019-06-15T22:53:47.214Z,19.70
2019-06-15T22:56:17.143Z,19.70
2019-06-15T22:58:46.208Z,19.70
2019-06-15T23:01:16.835Z,19.70
2019-06-15T23:03:46.545Z,19.70
2019-06-15T23:06:16.119Z,19.70
2019-06-15T23:08:46.997Z,19.60
2019-06-15T23:11:17.189Z,19.50
2019-06-15T23:13:46.324Z,19.50
2019-06-15T23:16:14.989Z,19.40
2019-06-15T23:18:43.429Z,19.40
2019-06-15T23:21:11.908Z,19.20
2019-06-15T23:23:40.331Z,19.20
2019-06-15T23:26:08.840Z,19.10
2019-06-15T23:28:37.359Z,19.00
2019-06-15T23:31:07.530Z,19.00
2019-06-15T23:33:36.077Z,18.90
2019-06-15T23:36:09.049Z,18.90
2019-06-15T23:38:37.869Z,18.80
2019-06-15T23:41:07.052Z,18.70
2019-06-15T23:43:36.225Z,18.60
2019-06-15T23:46:06.670Z,18.70
2019-06-15T23:48:36.360Z,18.60
2019-06-15T23:51:06.209Z,18.60
2019-06-15T23:53:36.849Z,18.60
2019-06-15T23:56:06.308Z,18.50
2019-06-15T23:58:37.119Z,18.40
